Time;durP1;ratioP1;P1;durP2;ratioP2;P2;SDS_P1;SDS_P2;PMS_P1;PMS_P2;Temp;Humidity;BMP_temperature;BMP_pressure;BME280_temperature;BME280_humidity;BME280_pressure;Samples;Min_cycle;Max_cycle;Signal;HPM_P1;HPM_P2
2021/05/03 00:05:55;;;;;;;5.20;2.65;;;4.10;99.90;;;;;;12274360;28;20192;-78
2021/05/03 00:11:56;;;;;;;5.53;2.80;;;4.20;99.90;;;;;;12274010;28;20610;-78
2021/05/03 00:17:58;;;;;;;6.13;2.42;;;4.30;99.90;;;;;;12269908;28;20123;-78
2021/05/03 00:23:59;;;;;;;3.88;2.67;;;4.40;99.90;;;;;;12270399;28;20043;-78
2021/05/03 00:30:01;;;;;;;4.88;2.53;;;4.10;99.90;;;;;;12267457;28;20044;-78
2021/05/03 00:36:03;;;;;;;11.35;3.17;;;4.00;99.90;;;;;;12262501;28;20047;-78
2021/05/03 00:42:04;;;;;;;5.60;2.90;;;4.10;99.90;;;;;;12269222;28;20466;-78
2021/05/03 00:48:06;;;;;;;4.75;2.60;;;4.40;99.90;;;;;;12269998;28;20504;-77
2021/05/03 00:54:07;;;;;;;7.25;3.10;;;4.10;99.90;;;;;;12275602;28;20112;-78
2021/05/03 01:00:11;;;;;;;5.78;2.83;;;3.90;99.90;;;;;;12275582;28;20059;-78
2021/05/03 01:06:17;;;;;;;6.13;2.97;;;4.00;99.90;;;;;;12274333;28;20059;-78
2021/05/03 01:12:19;;;;;;;6.72;3.15;;;4.10;99.90;;;;;;12277463;28;20058;-78
2021/05/03 01:18:24;;;;;;;6.25;2.95;;;3.90;99.90;;;;;;12278960;28;20172;-78
2021/05/03 01:24:25;;;;;;;5.22;3.05;;;3.70;99.90;;;;;;12279885;28;20067;-78
2021/05/03 01:30:36;;;;;;;5.65;2.63;;;3.70;99.90;;;;;;12283778;28;20078;-78
2021/05/03 01:36:38;;;;;;;6.35;3.28;;;3.50;99.90;;;;;;12287398;28;20389;-78
2021/05/03 01:42:40;;;;;;;8.18;3.10;;;3.40;99.90;;;;;;12270625;28;20100;-78
2021/05/03 01:48:42;;;;;;;9.07;3.17;;;3.30;99.90;;;;;;12280228;28;20510;-78
2021/05/03 01:54:44;;;;;;;12.93;3.38;;;3.20;99.90;;;;;;12274715;28;20078;-78
2021/05/03 02:00:45;;;;;;;6.18;3.00;;;3.20;99.90;;;;;;12271506;28;20109;-78
2021/05/03 02:06:46;;;;;;;6.68;3.25;;;3.10;99.90;;;;;;12285447;28;20602;-78
2021/05/03 02:12:47;;;;;;;5.25;3.05;;;3.20;99.90;;;;;;12254706;28;20466;-78
2021/05/03 02:18:49;;;;;;;6.80;3.63;;;3.20;99.90;;;;;;12230560;28;20056;-78
2021/05/03 02:24:50;;;;;;;10.68;3.75;;;3.10;99.90;;;;;;12218089;28;20076;-78
2021/05/03 02:30:51;;;;;;;9.13;3.90;;;3.10;99.90;;;;;;12240367;28;20134;-78
2021/05/03 02:36:55;;;;;;;7.68;3.58;;;3.20;99.90;;;;;;12279692;28;20138;-78
2021/05/03 02:42:59;;;;;;;;;;;3.20;99.90;;;;;;12281201;28;20043;-78
2021/05/03 02:49:00;;;;;;;7.72;4.15;;;3.10;99.90;;;;;;12283001;28;20492;-78
2021/05/03 02:55:02;;;;;;;8.93;4.00;;;3.20;99.90;;;;;;12270297;28;20146;-78
2021/05/03 03:01:04;;;;;;;7.63;4.25;;;3.20;99.90;;;;;;12274705;28;20051;-78
2021/05/03 03:07:05;;;;;;;10.52;4.30;;;3.30;99.90;;;;;;12281245;28;20119;-78
2021/05/03 03:13:07;;;;;;;6.82;4.18;;;3.30;99.90;;;;;;12280439;28;20718;-78
2021/05/03 03:19:08;;;;;;;7.82;4.00;;;3.30;99.90;;;;;;12276184;28;20524;-78
2021/05/03 03:25:10;;;;;;;7.43;4.15;;;3.30;99.90;;;;;;12279684;28;20185;-78
2021/05/03 03:31:11;;;;;;;9.48;3.92;;;3.20;99.90;;;;;;12274544;28;20077;-78
2021/05/03 03:37:12;;;;;;;8.23;4.57;;;3.20;99.90;;;;;;12280896;28;20055;-79
2021/05/03 03:43:15;;;;;;;8.55;3.75;;;3.20;99.90;;;;;;12272712;28;20067;-78
2021/05/03 03:49:16;;;;;;;6.43;4.22;;;3.20;99.90;;;;;;12274317;28;20130;-78
2021/05/03 03:55:18;;;;;;;6.57;3.88;;;3.00;99.90;;;;;;12278864;28;20097;-78
2021/05/03 04:01:20;;;;;;;6.68;4.30;;;3.00;99.90;;;;;;12286417;28;20557;-78
2021/05/03 04:07:38;;;;;;;7.75;4.60;;;3.00;99.90;;;;;;12281308;28;20081;-78
2021/05/03 04:26:21;;;;;;;8.25;4.53;;;3.40;99.90;;;;;;12224440;28;20048;-78
2021/05/03 04:32:22;;;;;;;9.00;4.93;;;3.40;99.90;;;;;;12235325;28;20048;-78
2021/05/03 04:38:25;;;;;;;9.38;5.03;;;3.60;99.90;;;;;;12232414;28;20055;-78
2021/05/03 04:44:26;;;;;;;7.18;5.15;;;3.60;99.90;;;;;;12228960;28;20051;-78
2021/05/03 04:50:27;;;;;;;6.70;4.70;;;3.70;99.90;;;;;;12234199;28;20067;-79
2021/05/03 04:56:29;;;;;;;8.10;5.10;;;3.70;99.90;;;;;;12270444;28;20051;-78
2021/05/03 05:02:30;;;;;;;8.75;5.38;;;3.80;99.90;;;;;;12275095;28;20100;-78
2021/05/03 05:08:31;;;;;;;8.63;5.22;;;4.00;99.90;;;;;;12272942;28;20043;-79
2021/05/03 05:14:33;;;;;;;10.70;5.97;;;4.00;99.90;;;;;;12278180;28;20044;-78
2021/05/03 05:20:35;;;;;;;8.35;5.43;;;3.90;99.90;;;;;;12271418;28;20070;-78
2021/05/03 05:26:37;;;;;;;12.48;5.95;;;3.90;99.90;;;;;;12271143;28;20055;-78
2021/05/03 05:32:38;;;;;;;14.00;6.90;;;3.90;99.90;;;;;;12258993;28;20724;-79
2021/05/03 05:38:40;;;;;;;8.10;5.55;;;4.00;99.90;;;;;;12275233;28;20039;-78
2021/05/03 05:44:41;;;;;;;8.43;6.00;;;4.10;99.90;;;;;;12278525;28;20073;-79
2021/05/03 05:50:42;;;;;;;9.80;5.72;;;4.30;99.90;;;;;;12285422;28;20108;-79
2021/05/03 05:56:44;;;;;;;9.05;5.28;;;4.30;99.90;;;;;;12276432;28;20138;-79
2021/05/03 06:02:45;;;;;;;10.00;5.57;;;4.30;99.90;;;;;;12277998;28;20059;-79
2021/05/03 06:08:47;;;;;;;12.75;5.72;;;4.30;99.90;;;;;;12278232;28;20403;-79
2021/05/03 06:14:48;;;;;;;10.02;6.38;;;4.40;99.90;;;;;;12282991;28;20043;-78
2021/05/03 06:20:50;;;;;;;9.32;5.93;;;4.50;99.90;;;;;;12276540;28;20092;-78
2021/05/03 06:26:51;;;;;;;8.82;5.88;;;4.60;99.90;;;;;;12281000;28;20166;-78
2021/05/03 06:32:53;;;;;;;12.15;5.57;;;4.70;99.90;;;;;;12271214;28;20085;-78
2021/05/03 06:38:55;;;;;;;13.75;6.03;;;5.00;99.90;;;;;;12270282;28;21067;-78
2021/05/03 06:44:56;;;;;;;9.63;5.50;;;5.10;99.90;;;;;;12283181;28;20555;-79
2021/05/03 06:50:58;;;;;;;13.90;5.68;;;5.20;99.90;;;;;;12281195;28;20062;-79
2021/05/03 06:56:59;;;;;;;11.75;5.97;;;5.40;99.90;;;;;;12282637;28;20483;-78
2021/05/03 07:03:00;;;;;;;14.07;6.13;;;5.60;99.90;;;;;;12282894;28;20051;-79
2021/05/03 07:09:07;;;;;;;12.27;5.90;;;5.90;99.90;;;;;;12284341;28;20062;-78
2021/05/03 07:15:10;;;;;;;15.32;6.10;;;6.20;99.90;;;;;;12286483;28;20096;-79
2021/05/03 07:21:11;;;;;;;12.80;6.30;;;6.70;99.90;;;;;;12275369;28;20054;-79
2021/05/03 07:27:12;;;;;;;12.20;5.57;;;7.10;99.90;;;;;;12276603;28;20122;-79
2021/05/03 07:33:14;;;;;;;10.55;4.97;;;7.20;99.90;;;;;;12281146;28;20094;-79
2021/05/03 07:39:16;;;;;;;12.93;5.00;;;7.40;99.90;;;;;;12282697;28;20081;-79
2021/05/03 07:45:18;;;;;;;7.80;4.13;;;7.00;99.90;;;;;;12282582;28;20085;-79
2021/05/03 07:51:19;;;;;;;6.80;4.15;;;7.70;99.90;;;;;;12279993;28;20043;-79
2021/05/03 07:57:21;;;;;;;7.35;4.65;;;7.90;99.90;;;;;;12277859;28;20108;-79
2021/05/03 08:03:22;;;;;;;7.22;4.53;;;8.30;99.90;;;;;;12280483;28;20100;-79
2021/05/03 08:09:27;;;;;;;7.45;4.65;;;8.70;99.90;;;;;;12274157;28;20062;-79
2021/05/03 08:15:28;;;;;;;8.55;4.78;;;8.60;99.90;;;;;;12264589;28;20054;-79
2021/05/03 08:21:30;;;;;;;8.85;4.70;;;8.60;99.90;;;;;;12276902;28;20122;-79
2021/05/03 08:27:31;;;;;;;10.55;4.78;;;8.70;99.90;;;;;;12268230;28;20035;-79
2021/05/03 08:33:32;;;;;;;7.05;4.63;;;9.00;99.90;;;;;;12277255;28;20105;-79
2021/05/03 08:39:34;;;;;;;6.38;4.57;;;9.50;99.90;;;;;;12213580;28;20051;-79
2021/05/03 08:45:37;;;;;;;6.95;4.90;;;9.90;99.90;;;;;;12202757;28;20068;-80
2021/05/03 08:51:50;;;;;;;6.10;4.28;;;9.90;99.90;;;;;;12225331;28;20083;-79
2021/05/03 08:57:51;;;;;;;8.85;4.10;;;9.90;99.90;;;;;;12205526;28;20048;-79
2021/05/03 09:03:54;;;;;;;7.63;4.40;;;10.10;99.90;;;;;;12211532;28;20048;-79
2021/05/03 09:09:55;;;;;;;9.52;4.75;;;10.10;99.90;;;;;;12211763;28;20048;-81
2021/05/03 09:16:18;;;;;;;7.85;4.75;;;10.30;99.90;;;;;;12213819;28;21134;-80
2021/05/03 09:22:27;;;;;;;11.25;5.07;;;10.60;99.90;;;;;;12210854;28;20047;-79
2021/05/03 09:28:30;;;;;;;9.30;4.38;;;10.30;99.90;;;;;;12219193;28;20131;-79
2021/05/03 09:34:46;;;;;;;9.75;4.28;;;11.10;99.90;;;;;;12224916;28;20068;-79
2021/05/03 09:40:47;;;;;;;9.70;4.43;;;10.80;99.90;;;;;;12237176;28;20036;-79
2021/05/03 09:46:50;;;;;;;7.35;4.30;;;11.10;99.90;;;;;;12273079;28;20044;-79
2021/05/03 09:53:13;;;;;;;7.75;3.80;;;11.30;99.90;;;;;;12252413;28;20142;-79
2021/05/03 09:59:41;;;;;;;9.82;4.63;;;11.10;99.90;;;;;;12213553;28;20140;-79
2021/05/03 10:05:42;;;;;;;8.60;4.20;;;11.20;99.90;;;;;;12206393;28;20549;-78
2021/05/03 10:11:44;;;;;;;6.95;4.20;;;11.80;99.90;;;;;;12213275;28;20609;-78
2021/05/03 10:17:46;;;;;;;8.07;4.05;;;12.00;99.90;;;;;;12211138;28;20144;-79
2021/05/03 10:23:47;;;;;;;6.82;3.80;;;12.60;99.90;;;;;;12225427;28;20059;-80
2021/05/03 10:30:09;;;;;;;5.40;3.78;;;12.60;99.90;;;;;;12224290;28;20084;-80
2021/05/03 10:36:29;;;;;;;6.72;4.10;;;12.90;99.90;;;;;;12215763;28;20040;-79
2021/05/03 10:42:32;;;;;;;7.93;4.13;;;13.30;99.90;;;;;;12215914;28;20093;-79
2021/05/03 10:54:59;;;;;;;5.07;3.97;;;13.70;99.90;;;;;;12205558;28;20048;-79
2021/05/03 11:01:05;;;;;;;6.78;4.78;;;13.10;99.90;;;;;;12212403;28;20040;-79
2021/05/03 11:07:09;;;;;;;8.13;5.00;;;12.60;99.90;;;;;;12222382;28;20098;-79
2021/05/03 11:13:38;;;;;;;8.20;5.00;;;13.30;99.90;;;;;;12207940;28;20151;-79
2021/05/03 11:25:53;;;;;;;8.05;4.43;;;12.80;99.90;;;;;;12210552;28;20090;-79
2021/05/03 11:31:54;;;;;;;7.93;4.50;;;13.70;99.90;;;;;;12211266;28;20115;-80
2021/05/03 11:38:07;;;;;;;7.57;4.60;;;13.70;99.90;;;;;;12212188;28;20109;-79
2021/05/03 11:44:24;;;;;;;7.97;4.50;;;13.40;99.90;;;;;;12218802;28;20048;-79
2021/05/03 11:50:28;;;;;;;9.95;4.72;;;13.70;99.90;;;;;;12209662;28;20044;-79
2021/05/03 11:56:34;;;;;;;5.97;4.18;;;13.80;99.90;;;;;;12203788;28;20052;-80
2021/05/03 12:02:36;;;;;;;6.20;4.07;;;13.00;99.90;;;;;;12218243;28;20048;-79
2021/05/03 12:08:38;;;;;;;6.70;4.20;;;13.50;99.90;;;;;;12291012;28;20044;-79
2021/05/03 12:14:50;;;;;;;7.03;4.47;;;14.10;99.90;;;;;;12221577;28;20048;-79
2021/05/03 12:20:53;;;;;;;5.95;4.05;;;13.60;99.90;;;;;;12211306;28;20123;-79
2021/05/03 12:26:56;;;;;;;8.80;4.75;;;13.00;99.90;;;;;;12198959;28;20087;-79
2021/05/03 12:32:57;;;;;;;8.32;4.60;;;12.90;99.90;;;;;;12213477;28;20567;-79
2021/05/03 12:39:08;;;;;;;8.23;4.72;;;13.40;99.90;;;;;;12188524;28;20113;-81
2021/05/03 12:45:51;;;;;;;7.30;4.43;;;13.90;99.90;;;;;;12210623;28;20603;-80
2021/05/03 12:52:05;;;;;;;6.70;4.18;;;13.40;99.90;;;;;;12221604;28;20401;-80
2021/05/03 13:11:08;;;;;;;5.25;3.95;;;14.00;99.90;;;;;;12219604;28;20078;-79
2021/05/03 13:30:19;;;;;;;7.70;4.68;;;13.10;99.90;;;;;;12207203;28;20138;-79
2021/05/03 13:36:24;;;;;;;8.82;4.95;;;13.50;99.90;;;;;;12199516;28;20111;-79
2021/05/03 13:42:25;;;;;;;7.40;4.70;;;13.50;99.90;;;;;;12207614;28;20044;-79
2021/05/03 13:48:28;;;;;;;7.25;4.80;;;12.90;99.90;;;;;;12213677;28;20507;-80
2021/05/03 13:54:30;;;;;;;6.03;4.45;;;13.00;99.90;;;;;;12208153;28;20444;-78
2021/05/03 14:00:31;;;;;;;7.35;4.28;;;12.40;99.90;;;;;;12213434;28;20127;-79
2021/05/03 14:06:32;;;;;;;6.70;4.60;;;12.80;99.90;;;;;;12293702;28;20133;-79
2021/05/03 14:12:33;;;;;;;7.78;4.22;;;13.50;99.90;;;;;;12208684;28;20048;-79
2021/05/03 14:18:35;;;;;;;5.78;4.60;;;14.50;99.90;;;;;;12214710;28;20087;-78
2021/05/03 14:24:37;;;;;;;10.15;5.10;;;14.70;99.90;;;;;;12211272;28;20042;-79
2021/05/03 14:30:47;;;;;;;7.93;5.30;;;14.50;99.90;;;;;;12204932;28;20052;-79
2021/05/03 14:36:48;;;;;;;7.10;4.65;;;14.40;99.90;;;;;;12214604;28;20139;-80
2021/05/03 14:42:56;;;;;;;12.30;4.63;;;14.80;99.90;;;;;;12216290;28;20082;-79
2021/05/03 14:55:01;;;;;;;7.43;4.80;;;14.40;99.90;;;;;;12214881;28;20063;-79
2021/05/03 15:01:02;;;;;;;7.60;4.93;;;13.80;99.90;;;;;;12209152;28;20097;-79
2021/05/03 15:07:10;;;;;;;10.25;4.82;;;13.80;99.90;;;;;;12212419;28;20082;-79
2021/05/03 15:13:17;;;;;;;7.53;4.40;;;14.00;99.90;;;;;;12209372;28;20691;-79
2021/05/03 15:19:31;;;;;;;6.70;4.90;;;14.50;99.90;;;;;;12211169;28;20135;-79
2021/05/03 15:25:34;;;;;;;7.80;4.43;;;14.40;99.90;;;;;;12217534;28;20166;-79
2021/05/03 15:37:53;;;;;;;6.68;4.45;;;13.80;99.90;;;;;;12211233;28;20150;-79
2021/05/03 15:43:55;;;;;;;9.30;5.22;;;13.20;99.90;;;;;;12212539;28;20515;-78
2021/05/03 15:49:56;;;;;;;7.78;4.32;;;13.30;99.90;;;;;;12208500;28;20082;-79
2021/05/03 15:56:00;;;;;;;8.65;5.00;;;13.00;99.90;;;;;;12213567;28;20048;-79
2021/05/03 16:02:02;;;;;;;7.03;4.70;;;13.00;99.90;;;;;;12160383;28;20389;-80
2021/05/03 16:08:05;;;;;;;7.05;4.35;;;13.00;99.70;;;;;;12219328;28;20591;-80
2021/05/03 16:14:07;;;;;;;7.18;4.13;;;12.90;97.80;;;;;;12218852;28;20139;-79
2021/05/03 16:20:09;;;;;;;8.68;5.20;;;13.00;99.90;;;;;;12210353;28;20131;-80
2021/05/03 16:26:11;;;;;;;7.72;4.22;;;12.80;97.60;;;;;;12224469;28;20078;-79
2021/05/03 16:32:13;;;;;;;5.40;3.75;;;12.40;99.00;;;;;;12186426;28;20112;-80
2021/05/03 16:38:15;;;;;;;6.63;4.38;;;12.50;99.90;;;;;;12213827;28;20051;-79
2021/05/03 16:44:17;;;;;;;10.82;4.85;;;12.40;99.90;;;;;;12215380;28;20591;-78
2021/05/03 16:50:19;;;;;;;7.22;4.90;;;12.50;99.90;;;;;;12205130;28;20040;-79
2021/05/03 16:56:20;;;;;;;8.40;5.18;;;12.60;99.90;;;;;;12242474;28;20042;-79
2021/05/03 17:02:21;;;;;;;9.40;4.60;;;12.40;99.90;;;;;;12257110;28;20028;-79
2021/05/03 17:08:23;;;;;;;8.32;4.43;;;12.20;99.90;;;;;;12215428;28;20056;-79
2021/05/03 17:14:24;;;;;;;9.82;4.70;;;12.50;99.90;;;;;;12206688;28;20052;-79
2021/05/03 17:20:27;;;;;;;7.35;4.90;;;13.00;99.90;;;;;;12219549;28;20127;-79
2021/05/03 17:26:29;;;;;;;10.43;5.20;;;12.80;99.90;;;;;;12210756;28;20051;-79
2021/05/03 17:32:30;;;;;;;8.70;5.28;;;12.60;99.90;;;;;;12209404;28;20808;-79
2021/05/03 17:38:32;;;;;;;8.73;5.15;;;12.20;99.90;;;;;;12216465;28;20163;-79
2021/05/03 17:44:33;;;;;;;8.45;5.03;;;11.80;99.90;;;;;;12211891;28;20123;-80
2021/05/03 17:50:35;;;;;;;9.55;5.72;;;11.70;99.90;;;;;;12204222;28;20051;-79
2021/05/03 17:56:36;;;;;;;8.95;5.30;;;11.70;99.90;;;;;;12208374;28;20539;-79
2021/05/03 18:02:38;;;;;;;7.68;4.57;;;11.60;99.90;;;;;;12186287;28;20049;-79
2021/05/03 18:08:42;;;;;;;11.00;5.05;;;11.40;99.90;;;;;;12208306;28;20052;-79
2021/05/03 18:14:44;;;;;;;9.95;4.50;;;11.30;99.90;;;;;;12206520;28;20051;-79
2021/05/03 18:20:48;;;;;;;9.55;5.13;;;11.20;99.90;;;;;;12210111;28;20048;-79
2021/05/03 18:26:50;;;;;;;8.70;5.78;;;11.00;99.90;;;;;;12211203;28;20453;-79
2021/05/03 18:32:51;;;;;;;6.93;5.10;;;11.00;99.90;;;;;;12210858;28;20056;-79
2021/05/03 18:38:54;;;;;;;8.05;5.53;;;10.90;99.90;;;;;;12206631;28;20539;-79
2021/05/03 18:44:55;;;;;;;7.00;4.80;;;10.70;99.90;;;;;;12194341;28;20175;-79
2021/05/03 18:50:57;;;;;;;7.95;4.90;;;10.70;99.90;;;;;;12182595;28;20059;-79
2021/05/03 18:56:58;;;;;;;7.88;5.25;;;10.60;99.90;;;;;;12202906;28;20098;-79
2021/05/03 19:02:59;;;;;;;7.70;4.82;;;10.40;99.90;;;;;;12210072;28;20044;-79
2021/05/03 19:09:01;;;;;;;10.25;5.32;;;10.40;99.90;;;;;;12213043;28;20134;-79
2021/05/03 19:15:04;;;;;;;8.38;4.80;;;10.20;99.90;;;;;;12205927;28;20119;-79
2021/05/03 19:21:06;;;;;;;9.50;5.35;;;10.00;99.90;;;;;;12212306;28;20078;-79
2021/05/03 19:27:07;;;;;;;8.20;5.00;;;10.00;99.90;;;;;;12207165;28;20074;-79
2021/05/03 19:33:09;;;;;;;7.75;5.32;;;9.90;99.90;;;;;;12218840;28;20083;-79
2021/05/03 19:39:10;;;;;;;9.40;5.63;;;9.70;99.90;;;;;;12224311;28;20147;-78
2021/05/03 19:45:12;;;;;;;10.20;5.93;;;9.60;99.90;;;;;;12208444;28;20070;-79
2021/05/03 19:51:48;;;;;;;9.43;5.85;;;9.60;99.90;;;;;;12211565;28;20606;-78
2021/05/03 20:04:10;;;;;;;7.72;5.78;;;9.30;99.90;;;;;;12222161;28;20109;-78
2021/05/03 20:10:14;;;;;;;9.13;5.47;;;9.30;99.90;;;;;;12209552;28;20548;-79
2021/05/03 20:16:15;;;;;;;10.17;5.97;;;9.30;99.90;;;;;;12199017;28;20130;-78
2021/05/03 20:22:16;;;;;;;8.77;5.50;;;9.40;99.90;;;;;;12214361;28;20048;-78
2021/05/03 20:28:18;;;;;;;6.65;4.93;;;9.40;99.90;;;;;;12218222;28;20052;-78
2021/05/03 20:34:40;;;;;;;11.07;5.45;;;9.30;99.90;;;;;;12211005;28;20063;-78
2021/05/03 20:40:42;;;;;;;6.43;4.63;;;9.20;99.90;;;;;;12204134;28;20126;-78
2021/05/03 20:46:44;;;;;;;7.30;4.40;;;9.20;99.90;;;;;;12210685;28;20532;-78
2021/05/03 20:52:45;;;;;;;6.60;4.35;;;9.20;99.90;;;;;;12206415;28;20546;-78
2021/05/03 20:58:46;;;;;;;5.53;3.88;;;9.30;99.90;;;;;;12214666;28;20047;-78
2021/05/03 21:04:49;;;;;;;7.18;4.07;;;9.40;99.90;;;;;;12224024;28;20405;-78
2021/05/03 21:10:52;;;;;;;7.28;3.50;;;9.40;99.90;;;;;;12232742;28;20575;-78
2021/05/03 21:16:53;;;;;;;6.18;3.70;;;9.40;99.90;;;;;;12223541;28;20090;-78
2021/05/03 21:22:54;;;;;;;4.47;2.97;;;9.60;99.90;;;;;;12215324;28;20094;-78
2021/05/03 21:28:56;;;;;;;5.07;2.95;;;9.60;99.90;;;;;;12219553;28;20083;-78
2021/05/03 21:34:57;;;;;;;4.60;2.78;;;9.70;99.90;;;;;;12215789;28;20070;-79
2021/05/03 21:40:58;;;;;;;4.20;2.80;;;9.70;99.90;;;;;;12220531;28;20119;-79
2021/05/03 21:47:03;;;;;;;4.78;2.40;;;9.70;99.90;;;;;;12230592;28;20127;-79
2021/05/03 21:53:04;;;;;;;;;;;9.80;99.90;;;;;;12211322;28;20052;-79
2021/05/03 21:59:06;;;;;;;4.80;2.90;;;9.80;99.90;;;;;;12218208;28;20101;-79
2021/05/03 22:05:08;;;;;;;3.47;2.33;;;9.80;99.90;;;;;;12216265;28;20086;-79
2021/05/03 22:11:14;;;;;;;10.27;2.50;;;9.80;99.90;;;;;;12221171;28;20090;-78
2021/05/03 22:29:36;;;;;;;3.78;2.30;;;9.90;99.90;;;;;;12210922;28;20113;-79
2021/05/03 22:35:38;;;;;;;4.40;2.47;;;9.90;99.90;;;;;;12218833;28;20048;-78
2021/05/03 23:07:05;;;;;;;6.30;2.85;;;10.20;99.90;;;;;;12216531;28;20396;-78
2021/05/03 23:19:27;;;;;;;4.65;3.10;;;10.10;99.90;;;;;;12217653;28;20079;-78
2021/05/03 23:25:28;;;;;;;8.32;3.30;;;10.20;99.90;;;;;;12224431;28;20085;-79
2021/05/03 23:31:29;;;;;;;6.57;2.85;;;10.10;99.90;;;;;;12207574;28;20212;-79
2021/05/03 23:37:31;;;;;;;6.13;3.03;;;10.20;99.90;;;;;;12215674;28;20044;-79
2021/05/03 23:43:32;;;;;;;5.35;3.30;;;10.20;99.90;;;;;;12210068;28;20048;-78
2021/05/03 23:49:33;;;;;;;8.82;3.33;;;10.30;99.90;;;;;;12218712;28;20162;-79
2021/05/03 23:55:35;;;;;;;5.78;2.97;;;10.30;99.90;;;;;;12212587;28;20074;-79
